EYSA/SQQ METAR and TAF weather

Enter ICAO airport designator
Station Type Date Time Source
EYSA METAR 2018/06/25 02:20 UTC NOAA

EYSA 250220Z 24003KT 9999 FEW006 BKN045 OVC055 10/09 Q1012 BLU NOSIG


Station Type Date Time Source
EYSA Decoded METAR 2018/06/25 02:20 UTC NOAA

Siauliai Intl./Mil., Lithuania (EYSA) 55-53-38N 023-23-42E
Jun 24, 2018 - 10:20 PM EDT / 2018.06.25 0220 UTC
Wind: from the WSW (240 degrees) at 3 MPH (3 KT):0
Visibility: greater than 7 mile(s):0
Sky conditions: overcast
Temperature: 50 F (10 C)
Dew Point: 48 F (9 C)
Relative Humidity: 93%
Pressure (altimeter): 29.88 in. Hg (1012 hPa)
ob: EYSA 250220Z 24003KT 9999 FEW006 BKN045 OVC055 10/09 Q1012 BLU NOSIG
cycle: 2

Station Type Date Time Source
EYSA TAF 2018/04/25 12:03 UTC NOAA

TAF TAF EYSA 251400Z 2512/2524 VRB05KT 5000 RA BR BKN005 OVC010
TEMPO 2512/2518 3000 SHRA SCT003 BKN015CB
BECMG 2518/2519 3000 BR BKN003
TEMPO 2519/2521 1500
BECMG 2521/2522 27016G26KT


Example: see airport list